createdAt,value
2022-08-26T00:01:24.338Z,6.87
2022-08-26T00:03:56.638Z,6.50
2022-08-26T00:06:23.501Z,7.00
2022-08-26T00:08:50.129Z,5.60
2022-08-26T00:11:26.639Z,6.10
2022-08-26T00:13:54.711Z,6.20
2022-08-26T00:16:22.470Z,6.30
2022-08-26T00:18:49.806Z,6.10
2022-08-26T00:21:16.792Z,7.10
2022-08-26T00:23:44.260Z,7.10
2022-08-26T00:26:11.591Z,7.27
2022-08-26T00:28:40.385Z,7.00
2022-08-26T00:31:07.453Z,6.93
2022-08-26T00:33:38.152Z,7.50
2022-08-26T00:36:06.031Z,6.83
2022-08-26T00:38:33.064Z,6.93
2022-08-26T00:41:00.320Z,7.07
2022-08-26T00:43:27.297Z,7.20
2022-08-26T00:46:02.378Z,7.30
2022-08-26T00:48:31.839Z,8.07
2022-08-26T00:51:04.607Z,7.20
2022-08-26T00:53:35.631Z,7.50
2022-08-26T00:56:19.024Z,6.87
2022-08-26T00:58:47.905Z,7.43
2022-08-26T01:01:15.795Z,6.73
2022-08-26T01:03:44.524Z,7.07
2022-08-26T01:06:13.109Z,8.23
2022-08-26T01:08:40.454Z,8.23
2022-08-26T01:11:09.115Z,7.40
2022-08-26T01:13:37.873Z,7.30
2022-08-26T01:16:08.155Z,7.90
2022-08-26T01:18:35.837Z,7.63
2022-08-26T01:21:18.963Z,7.43
2022-08-26T01:23:49.609Z,9.10
2022-08-26T01:26:21.884Z,7.63
2022-08-26T01:28:50.888Z,7.77
2022-08-26T01:31:22.029Z,7.20
2022-08-26T01:34:05.113Z,7.87
2022-08-26T01:37:31.268Z,7.57
2022-08-26T01:39:58.069Z,7.20
2022-08-26T01:42:27.338Z,7.93
2022-08-26T01:45:04.701Z,7.63
2022-08-26T01:47:34.575Z,7.40
2022-08-26T01:50:05.496Z,7.83
2022-08-26T01:52:37.164Z,7.40
2022-08-26T01:55:05.815Z,6.70
2022-08-26T01:57:35.227Z,7.30
2022-08-26T02:00:07.286Z,8.50
2022-08-26T02:02:34.007Z,7.90
2022-08-26T02:05:05.793Z,8.00
2022-08-26T02:07:33.704Z,7.87
2022-08-26T02:10:00.581Z,7.40
2022-08-26T02:12:27.465Z,10.90
2022-08-26T02:14:57.906Z,11.67
2022-08-26T02:17:32.870Z,11.60
2022-08-26T02:19:59.434Z,13.90
2022-08-26T02:22:26.272Z,15.00
2022-08-26T02:24:59.083Z,15.50
2022-08-26T02:27:32.109Z,16.60
2022-08-26T02:30:22.886Z,16.80
2022-08-26T02:32:51.589Z,18.47
2022-08-26T02:35:20.488Z,18.03
2022-08-26T02:37:47.414Z,17.57
2022-08-26T02:40:21.369Z,18.03
2022-08-26T02:42:48.681Z,19.33
2022-08-26T02:45:16.768Z,19.20
2022-08-26T02:47:51.426Z,20.53
2022-08-26T02:50:19.071Z,20.70
2022-08-26T02:52:45.761Z,19.90
2022-08-26T02:55:12.472Z,21.77
2022-08-26T02:57:39.403Z,20.90
2022-08-26T03:00:10.922Z,21.60
2022-08-26T03:02:37.534Z,23.57
2022-08-26T03:05:05.099Z,23.43
2022-08-26T03:07:31.729Z,24.57
2022-08-26T03:09:58.616Z,26.10
2022-08-26T03:12:25.724Z,26.50
2022-08-26T03:14:52.978Z,26.07
2022-08-26T03:17:19.640Z,26.80
2022-08-26T03:19:46.566Z,28.40
2022-08-26T03:22:14.695Z,27.60
2022-08-26T03:24:42.232Z,29.40
2022-08-26T03:27:12.811Z,28.60
2022-08-26T03:30:00.057Z,29.67
2022-08-26T03:32:27.206Z,29.53
2022-08-26T03:34:54.252Z,29.07
2022-08-26T03:37:21.474Z,31.40
2022-08-26T03:39:48.678Z,31.10
2022-08-26T03:42:15.823Z,33.77
2022-08-26T03:44:42.658Z,31.60
2022-08-26T03:47:10.673Z,33.10
2022-08-26T03:49:37.275Z,31.80
2022-08-26T03:52:05.029Z,32.37
2022-08-26T03:54:32.741Z,31.57
2022-08-26T03:56:59.516Z,31.10
2022-08-26T03:59:26.697Z,33.23
2022-08-26T04:01:54.756Z,32.30
2022-08-26T04:04:22.737Z,31.73
2022-08-26T04:06:58.235Z,31.30
2022-08-26T04:09:25.549Z,31.60
2022-08-26T04:11:52.140Z,32.20
2022-08-26T04:14:22.921Z,34.13
2022-08-26T04:16:50.960Z,30.93
2022-08-26T04:19:19.375Z,32.10
2022-08-26T04:21:47.941Z,30.80
2022-08-26T04:24:19.679Z,35.47
2022-08-26T04:26:46.872Z,37.00
2022-08-26T04:29:22.508Z,35.80
2022-08-26T04:31:49.652Z,36.77
2022-08-26T04:34:23.299Z,36.73
2022-08-26T04:36:51.280Z,34.90
2022-08-26T04:39:20.098Z,34.97
2022-08-26T04:41:48.456Z,34.03
2022-08-26T04:44:15.264Z,35.10
2022-08-26T04:46:43.898Z,35.43
2022-08-26T04:49:11.362Z,33.17
2022-08-26T04:51:38.972Z,33.73
2022-08-26T04:54:06.998Z,33.23
2022-08-26T04:56:36.919Z,32.30
2022-08-26T04:59:06.191Z,32.33
2022-08-26T05:01:34.879Z,31.90
2022-08-26T05:04:08.103Z,30.57
2022-08-26T05:06:36.990Z,33.83
2022-08-26T05:09:04.215Z,31.10
2022-08-26T05:11:30.938Z,28.63
2022-08-26T05:14:00.339Z,25.80
2022-08-26T05:16:30.253Z,25.90
2022-08-26T05:18:57.412Z,26.60
2022-08-26T05:21:26.698Z,26.73
2022-08-26T05:23:54.887Z,22.83
2022-08-26T05:26:27.247Z,23.60
2022-08-26T05:28:55.374Z,25.80
2022-08-26T05:31:28.736Z,23.77
2022-08-26T05:33:57.428Z,22.43
2022-08-26T05:36:27.380Z,23.50
2022-08-26T05:38:58.155Z,24.73
2022-08-26T05:41:34.454Z,23.50
2022-08-26T05:44:06.177Z,22.20
2022-08-26T05:46:33.884Z,23.07
2022-08-26T05:49:01.253Z,23.60
2022-08-26T05:51:27.842Z,22.77
2022-08-26T05:53:57.299Z,22.57
2022-08-26T05:56:26.057Z,21.60
2022-08-26T05:58:53.473Z,22.00
2022-08-26T06:01:24.164Z,20.73
2022-08-26T06:03:52.290Z,20.10
2022-08-26T06:06:33.397Z,21.47
2022-08-26T06:09:04.462Z,21.00
2022-08-26T06:11:32.841Z,20.80
2022-08-26T06:14:03.751Z,19.83
2022-08-26T06:16:33.455Z,19.50
2022-08-26T06:19:02.775Z,20.70
2022-08-26T06:21:40.546Z,19.83
2022-08-26T06:24:28.749Z,18.30
2022-08-26T06:27:04.568Z,18.47
2022-08-26T06:29:34.232Z,19.10
2022-08-26T06:32:02.529Z,19.87
2022-08-26T06:34:30.520Z,19.30
2022-08-26T06:36:59.494Z,20.17
2022-08-26T06:39:26.076Z,19.03
2022-08-26T06:41:52.901Z,19.93
2022-08-26T06:44:20.214Z,19.63
2022-08-26T06:46:50.567Z,19.33
2022-08-26T06:49:18.320Z,19.73
2022-08-26T06:51:54.455Z,19.20
2022-08-26T06:54:21.275Z,19.27
2022-08-26T06:56:48.006Z,18.57
2022-08-26T06:59:15.979Z,18.07
2022-08-26T07:01:46.404Z,20.00
2022-08-26T07:04:21.864Z,19.83
2022-08-26T07:06:50.285Z,20.50
2022-08-26T07:09:24.577Z,21.20
2022-08-26T07:11:52.354Z,19.93
2022-08-26T07:14:21.483Z,20.07
2022-08-26T07:16:49.138Z,19.20
2022-08-26T07:19:17.369Z,19.70
2022-08-26T07:21:54.215Z,21.57
2022-08-26T07:24:22.173Z,20.27
2022-08-26T07:26:48.761Z,20.43
2022-08-26T07:29:18.320Z,20.87
2022-08-26T07:31:45.470Z,20.60
2022-08-26T07:34:13.804Z,19.33
2022-08-26T07:36:40.606Z,19.57
2022-08-26T07:39:07.805Z,19.03
2022-08-26T07:41:34.382Z,18.53
2022-08-26T07:44:01.097Z,18.33
2022-08-26T07:46:30.321Z,18.37
2022-08-26T07:48:58.161Z,18.47
2022-08-26T07:51:26.449Z,17.37
2022-08-26T07:53:54.252Z,19.20
2022-08-26T07:56:23.036Z,17.43
2022-08-26T07:58:51.441Z,17.60
2022-08-26T08:01:20.432Z,19.17
2022-08-26T08:03:50.513Z,16.37
2022-08-26T08:06:19.009Z,16.73
2022-08-26T08:08:46.254Z,16.27
2022-08-26T08:11:14.340Z,17.10
2022-08-26T08:13:41.291Z,16.67
2022-08-26T08:16:08.554Z,15.60
2022-08-26T08:18:40.154Z,17.77
2022-08-26T08:21:23.779Z,18.13
2022-08-26T08:23:52.821Z,15.40
2022-08-26T08:26:20.084Z,15.80
2022-08-26T08:28:47.940Z,15.87
2022-08-26T08:34:14.945Z,13.53
2022-08-26T08:36:41.839Z,14.10
2022-08-26T08:39:09.261Z,14.20
2022-08-26T08:42:08.815Z,15.27
2022-08-26T08:44:41.100Z,16.23
2022-08-26T08:47:26.758Z,14.07
2022-08-26T08:50:00.016Z,15.47
2022-08-26T08:52:31.989Z,14.77
2022-08-26T08:54:58.604Z,14.13
2022-08-26T08:57:37.504Z,14.63
2022-08-26T09:00:17.827Z,14.50
2022-08-26T09:03:36.513Z,13.53
2022-08-26T09:06:16.755Z,14.43
2022-08-26T09:08:45.930Z,11.47
2022-08-26T09:11:14.577Z,12.93
2022-08-26T09:13:46.343Z,12.00
2022-08-26T09:16:27.512Z,13.17
2022-08-26T09:19:27.095Z,12.20
2022-08-26T09:22:02.254Z,11.60
2022-08-26T09:24:41.694Z,11.90
2022-08-26T09:27:08.845Z,12.80
2022-08-26T09:29:44.271Z,11.70
2022-08-26T09:32:23.976Z,12.07
2022-08-26T09:35:00.747Z,14.60
2022-08-26T09:40:36.402Z,13.63
2022-08-26T09:43:07.744Z,13.10
2022-08-26T09:45:37.101Z,13.37
2022-08-26T09:48:04.834Z,12.93
2022-08-26T09:50:50.039Z,12.20
2022-08-26T09:53:21.034Z,12.40
2022-08-26T09:56:12.002Z,11.77
2022-08-26T09:58:41.927Z,11.67
2022-08-26T10:01:23.493Z,10.20
2022-08-26T10:03:51.655Z,9.80
2022-08-26T10:06:20.920Z,11.50
2022-08-26T10:09:01.935Z,9.77
2022-08-26T10:12:03.063Z,9.73
2022-08-26T10:14:39.758Z,11.00
2022-08-26T10:17:09.641Z,10.83
2022-08-26T10:19:57.090Z,10.37
2022-08-26T10:22:26.963Z,11.00
2022-08-26T10:24:57.309Z,11.70
2022-08-26T10:27:51.257Z,10.50
2022-08-26T10:30:23.450Z,10.43
2022-08-26T10:33:02.461Z,9.23
2022-08-26T10:35:30.932Z,9.93
2022-08-26T10:38:21.322Z,8.53
2022-08-26T10:40:55.018Z,8.60
2022-08-26T10:43:29.825Z,9.87
2022-08-26T10:46:04.755Z,10.90
2022-08-26T10:48:46.572Z,9.60
2022-08-26T10:51:17.719Z,9.83
2022-08-26T10:54:05.581Z,10.13
2022-08-26T10:56:39.634Z,9.27
2022-08-26T10:59:21.592Z,10.57
2022-08-26T11:01:56.764Z,12.80
2022-08-26T11:04:46.936Z,10.57
2022-08-26T11:07:30.228Z,11.20
2022-08-26T11:10:08.731Z,10.53
2022-08-26T11:12:35.927Z,9.00
2022-08-26T11:15:24.384Z,9.07
2022-08-26T11:17:51.531Z,9.57
2022-08-26T11:20:31.012Z,8.47
2022-08-26T11:23:20.372Z,8.80
2022-08-26T11:25:56.953Z,9.03
2022-08-26T11:28:40.026Z,9.33
2022-08-26T11:31:40.077Z,8.63
2022-08-26T11:34:10.920Z,8.57
2022-08-26T11:36:51.506Z,7.23
2022-08-26T11:39:46.822Z,7.10
2022-08-26T11:42:39.393Z,6.20
2022-08-26T11:45:42.390Z,7.40
2022-08-26T11:48:30.439Z,6.83
2022-08-26T11:51:01.425Z,7.17
2022-08-26T11:53:32.501Z,7.10
2022-08-26T11:56:04.084Z,6.90
2022-08-26T11:58:31.865Z,6.83
2022-08-26T12:01:03.497Z,6.80
2022-08-26T12:03:46.933Z,6.70
2022-08-26T12:06:22.332Z,7.73
2022-08-26T12:08:49.392Z,7.27
2022-08-26T12:11:28.345Z,6.70
2022-08-26T12:14:08.662Z,7.60
2022-08-26T12:16:39.946Z,6.30
2022-08-26T12:19:28.269Z,7.07
2022-08-26T12:22:07.280Z,6.00
2022-08-26T12:24:33.931Z,5.67
2022-08-26T12:27:22.784Z,6.23
2022-08-26T12:30:19.979Z,5.33
2022-08-26T12:32:57.642Z,5.87
2022-08-26T12:35:26.682Z,5.23
2022-08-26T12:37:54.989Z,5.90
2022-08-26T12:40:30.507Z,5.07
2022-08-26T12:43:00.348Z,5.20
2022-08-26T12:45:33.331Z,5.93
2022-08-26T12:48:05.813Z,5.20
2022-08-26T12:50:39.093Z,5.43
2022-08-26T12:53:11.677Z,4.40
2022-08-26T12:55:50.601Z,5.20
2022-08-26T12:58:38.317Z,5.00
2022-08-26T13:01:05.064Z,4.30
2022-08-26T13:03:45.815Z,4.60
2022-08-26T13:06:34.672Z,4.43
2022-08-26T13:09:07.039Z,4.17
2022-08-26T13:11:39.610Z,4.93
2022-08-26T13:14:09.760Z,5.23
2022-08-26T13:16:38.144Z,4.10
2022-08-26T13:19:10.254Z,4.90
2022-08-26T13:21:47.733Z,4.47
2022-08-26T13:24:33.875Z,4.70
2022-08-26T13:27:01.278Z,4.70
2022-08-26T13:29:28.137Z,5.00
2022-08-26T13:31:55.479Z,6.30
2022-08-26T13:34:23.469Z,4.97
2022-08-26T13:36:53.082Z,5.30
2022-08-26T13:39:20.269Z,4.67
2022-08-26T13:41:47.297Z,4.53
2022-08-26T13:44:14.033Z,4.97
2022-08-26T13:46:40.927Z,4.70
2022-08-26T13:49:08.131Z,4.30
2022-08-26T13:51:34.882Z,4.10
2022-08-26T13:54:01.479Z,4.30
2022-08-26T13:56:29.848Z,4.50
2022-08-26T13:58:57.803Z,4.90
2022-08-26T14:01:24.888Z,4.57
2022-08-26T14:03:51.745Z,3.90
2022-08-26T14:06:18.748Z,4.30
2022-08-26T14:08:46.068Z,4.50
2022-08-26T14:11:12.781Z,4.53
2022-08-26T14:13:39.585Z,4.93
2022-08-26T14:16:10.512Z,4.57
2022-08-26T14:18:42.555Z,5.37
2022-08-26T14:21:12.905Z,3.93
2022-08-26T14:23:40.085Z,3.37
2022-08-26T14:26:08.235Z,3.27
2022-08-26T14:28:35.504Z,3.80
2022-08-26T14:31:03.013Z,3.47
2022-08-26T14:33:32.583Z,3.03
2022-08-26T14:36:19.878Z,3.20
2022-08-26T14:38:47.077Z,3.20
2022-08-26T14:41:17.153Z,2.90
2022-08-26T14:43:49.969Z,3.63
2022-08-26T14:46:18.230Z,3.10
2022-08-26T14:48:44.937Z,2.80
2022-08-26T14:51:11.593Z,3.30
2022-08-26T14:53:56.559Z,2.93
2022-08-26T14:56:23.224Z,3.67
2022-08-26T14:58:49.791Z,2.80
2022-08-26T15:01:16.429Z,3.80
2022-08-26T15:03:43.128Z,3.03
2022-08-26T15:06:10.585Z,2.47
2022-08-26T15:08:37.253Z,3.30
2022-08-26T15:11:04.272Z,2.80
2022-08-26T15:13:30.861Z,3.03
2022-08-26T15:15:57.491Z,2.87
2022-08-26T15:18:24.108Z,3.30
2022-08-26T15:20:50.749Z,3.17
2022-08-26T15:23:17.348Z,3.60
2022-08-26T15:25:44.510Z,2.90
2022-08-26T15:28:11.448Z,3.20
2022-08-26T15:30:38.244Z,2.90
2022-08-26T15:33:04.828Z,2.93
2022-08-26T15:35:32.960Z,3.23
2022-08-26T15:38:02.724Z,2.90
2022-08-26T15:40:29.441Z,2.97
2022-08-26T15:43:11.443Z,3.67
2022-08-26T15:45:42.798Z,2.90
2022-08-26T15:48:09.367Z,2.50
2022-08-26T15:50:36.036Z,2.50
2022-08-26T15:53:04.661Z,2.67
2022-08-26T15:55:31.214Z,2.80
2022-08-26T15:57:57.865Z,2.50
2022-08-26T16:00:24.449Z,2.50
2022-08-26T16:02:51.113Z,2.73
2022-08-26T16:05:18.194Z,2.53
2022-08-26T16:07:44.894Z,3.33
2022-08-26T16:10:11.491Z,3.77
2022-08-26T16:12:38.401Z,2.80
2022-08-26T16:15:05.805Z,3.03
2022-08-26T16:17:32.389Z,2.63
2022-08-26T16:19:59.061Z,2.97
2022-08-26T16:22:27.108Z,3.07
2022-08-26T16:24:58.740Z,2.50
2022-08-26T16:27:25.447Z,2.70
2022-08-26T16:29:51.999Z,2.90
2022-08-26T16:32:18.623Z,3.03
2022-08-26T16:34:56.284Z,2.80
2022-08-26T16:37:23.606Z,2.50
2022-08-26T16:39:50.378Z,2.60
2022-08-26T16:42:17.025Z,2.77
2022-08-26T16:44:46.416Z,2.47
2022-08-26T16:47:14.325Z,2.57
2022-08-26T16:49:41.963Z,2.33
2022-08-26T16:52:09.978Z,2.50
2022-08-26T16:54:37.946Z,2.70
2022-08-26T16:57:04.751Z,2.23
2022-08-26T16:59:33.064Z,2.07
2022-08-26T17:02:00.461Z,2.50
2022-08-26T17:04:28.050Z,3.37
2022-08-26T17:06:54.824Z,2.30
2022-08-26T17:09:22.028Z,2.40
2022-08-26T17:11:48.819Z,2.43
2022-08-26T17:14:15.468Z,2.23
2022-08-26T17:16:42.395Z,2.10
2022-08-26T17:19:09.040Z,2.03
2022-08-26T17:21:36.865Z,2.13
2022-08-26T17:24:05.484Z,1.73
2022-08-26T17:26:32.276Z,1.97
2022-08-26T17:28:59.946Z,2.27
2022-08-26T17:31:27.035Z,2.30
2022-08-26T17:33:55.324Z,2.57
2022-08-26T17:36:28.040Z,2.03
2022-08-26T17:38:56.209Z,1.97
2022-08-26T17:41:22.853Z,2.50
2022-08-26T17:43:49.658Z,2.03
2022-08-26T17:46:16.269Z,1.90
2022-08-26T17:48:43.027Z,1.93
2022-08-26T17:51:15.178Z,1.83
2022-08-26T17:53:42.196Z,2.13
2022-08-26T17:56:11.579Z,1.60
2022-08-26T17:58:40.637Z,1.90
2022-08-26T18:01:14.759Z,1.40
2022-08-26T18:03:41.368Z,1.90
2022-08-26T18:06:10.754Z,1.80
2022-08-26T18:08:39.297Z,1.90
2022-08-26T18:11:16.099Z,2.10
2022-08-26T18:13:47.363Z,1.60
2022-08-26T18:16:15.695Z,2.17
2022-08-26T18:18:42.965Z,1.67
2022-08-26T18:21:15.679Z,1.63
2022-08-26T18:23:43.528Z,1.67
2022-08-26T18:26:15.099Z,2.10
2022-08-26T18:28:41.679Z,1.90
2022-08-26T18:31:08.957Z,1.80
2022-08-26T18:33:35.677Z,1.80
2022-08-26T18:36:02.485Z,1.60
2022-08-26T18:38:29.253Z,1.50
2022-08-26T18:40:55.867Z,1.50
2022-08-26T18:43:22.763Z,1.70
2022-08-26T18:45:49.385Z,1.77
2022-08-26T18:48:16.597Z,1.53
2022-08-26T18:50:47.281Z,1.20
2022-08-26T18:53:14.244Z,1.50
2022-08-26T18:55:40.851Z,1.90
2022-08-26T18:58:07.462Z,1.70
2022-08-26T19:00:34.075Z,1.53
2022-08-26T19:03:00.946Z,1.30
2022-08-26T19:05:27.632Z,1.50
2022-08-26T19:07:54.353Z,1.50
2022-08-26T19:10:20.934Z,1.50
2022-08-26T19:12:51.831Z,1.70
2022-08-26T19:15:19.329Z,1.50
2022-08-26T19:17:45.945Z,1.70
2022-08-26T19:20:12.575Z,1.97
2022-08-26T19:22:39.169Z,1.50
2022-08-26T19:25:06.227Z,1.57
2022-08-26T19:27:33.461Z,1.90
2022-08-26T19:30:00.127Z,1.30
2022-08-26T19:32:26.744Z,1.50
2022-08-26T19:34:53.515Z,1.87
2022-08-26T19:37:20.996Z,1.97
2022-08-26T19:39:47.832Z,2.10
2022-08-26T19:42:14.525Z,1.90
2022-08-26T19:44:59.572Z,1.63
2022-08-26T19:47:26.391Z,1.90
2022-08-26T19:49:54.648Z,2.10
2022-08-26T19:52:23.112Z,1.80
2022-08-26T19:54:56.617Z,1.93
2022-08-26T19:57:23.197Z,1.93
2022-08-26T19:59:49.856Z,2.23
2022-08-26T20:02:16.529Z,2.30
2022-08-26T20:04:44.571Z,2.23
2022-08-26T20:07:15.280Z,2.27
2022-08-26T20:09:45.321Z,2.13
2022-08-26T20:12:13.038Z,2.50
2022-08-26T20:14:39.701Z,2.43
2022-08-26T20:17:06.749Z,2.10
2022-08-26T20:19:52.587Z,2.27
2022-08-26T20:22:19.816Z,2.03
2022-08-26T20:24:47.121Z,2.77
2022-08-26T20:27:13.772Z,2.03
2022-08-26T20:29:40.653Z,2.40
2022-08-26T20:32:07.892Z,2.67
2022-08-26T20:34:36.010Z,2.90
2022-08-26T20:37:03.698Z,2.63
2022-08-26T20:39:30.420Z,3.13
2022-08-26T20:41:58.566Z,2.37
2022-08-26T20:44:26.274Z,3.20
2022-08-26T20:46:53.221Z,2.20
2022-08-26T20:49:19.867Z,2.63
2022-08-26T20:51:51.293Z,2.10
2022-08-26T20:54:20.057Z,2.17
2022-08-26T20:56:47.687Z,1.90
2022-08-26T20:59:15.348Z,2.63
2022-08-26T21:01:42.950Z,1.93
2022-08-26T21:04:15.668Z,1.43
2022-08-26T21:06:43.789Z,1.80
2022-08-26T21:09:19.106Z,1.90
2022-08-26T21:11:45.721Z,1.63
2022-08-26T21:14:16.098Z,2.00
2022-08-26T21:16:44.053Z,1.90
2022-08-26T21:19:13.718Z,1.50
2022-08-26T21:21:40.942Z,1.50
2022-08-26T21:24:08.203Z,1.63
2022-08-26T21:26:35.077Z,2.07
2022-08-26T21:29:02.417Z,1.80
2022-08-26T21:31:29.706Z,1.87
2022-08-26T21:33:56.489Z,1.87
2022-08-26T21:36:23.121Z,1.60
2022-08-26T21:38:49.714Z,2.00
2022-08-26T21:41:22.117Z,1.90
2022-08-26T21:43:50.625Z,1.80
2022-08-26T21:46:21.832Z,1.77
2022-08-26T21:48:55.701Z,1.80
2022-08-26T21:51:25.052Z,1.60
2022-08-26T21:53:53.032Z,1.90
2022-08-26T21:56:21.057Z,2.10
2022-08-26T21:58:48.350Z,1.90
2022-08-26T22:01:19.604Z,1.93
2022-08-26T22:03:47.942Z,1.57
2022-08-26T22:06:19.680Z,1.90
2022-08-26T22:08:46.544Z,1.80
2022-08-26T22:11:14.187Z,1.73
2022-08-26T22:13:42.284Z,1.90
2022-08-26T22:16:10.149Z,1.80
2022-08-26T22:18:37.757Z,2.47
2022-08-26T22:21:07.179Z,1.80
2022-08-26T22:23:35.126Z,2.80
2022-08-26T22:26:02.165Z,1.97
2022-08-26T22:28:28.772Z,1.80
2022-08-26T22:30:55.633Z,1.80
2022-08-26T22:33:22.924Z,1.60
2022-08-26T22:35:52.541Z,1.70
2022-08-26T22:38:20.347Z,1.60
2022-08-26T22:40:50.378Z,2.00
2022-08-26T22:43:18.480Z,1.50
2022-08-26T22:45:46.992Z,1.63
2022-08-26T22:48:16.340Z,1.47
2022-08-26T22:50:43.944Z,1.50
2022-08-26T22:53:10.597Z,1.60
2022-08-26T22:55:37.641Z,1.33
2022-08-26T22:58:05.069Z,1.50
2022-08-26T23:00:33.134Z,1.40
2022-08-26T23:03:00.752Z,1.70
2022-08-26T23:05:27.637Z,2.00
2022-08-26T23:07:56.087Z,1.90
2022-08-26T23:10:23.673Z,1.50
2022-08-26T23:12:52.263Z,1.60
2022-08-26T23:15:20.426Z,1.50
2022-08-26T23:17:47.734Z,1.47
2022-08-26T23:20:24.505Z,1.10
2022-08-26T23:22:51.132Z,1.10
2022-08-26T23:25:17.753Z,1.40
2022-08-26T23:27:44.506Z,1.50
2022-08-26T23:30:23.377Z,1.33
2022-08-26T23:32:50.761Z,1.50
2022-08-26T23:35:20.066Z,1.43
2022-08-26T23:37:49.925Z,1.43
2022-08-26T23:40:28.509Z,1.50
2022-08-26T23:42:57.573Z,1.10
2022-08-26T23:45:25.345Z,1.13
2022-08-26T23:47:52.987Z,1.30
2022-08-26T23:50:22.768Z,1.30
2022-08-26T23:53:08.699Z,1.80
2022-08-26T23:55:38.818Z,1.43
2022-08-26T23:58:06.162Z,2.77
